Página principal
METAR-TAF:

METAR-TAF

Aeroportos :

Qyzylorda, Cazaquistão

latitude: 44-51N, longitude: 065-30E, altura: 129 m

Observação actual do tempo

O boletim foi feito há 50 minutos, às 23:00 UTC
Vento 10 kt de nordeste
Temperatura -4°C
Humidade 86%
Pressão 1032 hPa
Visibilidade 10 km ou mais
sem nuvens abaixo de 1500 metros e sem cumulonimbus

METAR: UAOO 152300Z 04005MPS CAVOK M04/M06 Q1032 NOSIG RMK QFE762/1017

Hora: 05:50 (23:50 UTC)

Previsão

O boletim foi feito há 50 minutos, às 23:00 UTC
Previsão válida de 16 às 00 UTC a 16 às 09 UTC
Vento 16 kt de es-nordeste
Visibilidade 10 km ou mais
sem nuvens abaixo de 1500 metros e sem cumulonimbus

TAF: UAOO 152300Z 1600/1609 06008MPS CAVOK

Observações e previsões do tempo de mais de 4000 aeroportos (mensagens METAR e TAF).

As estações disponíveis são os pontos amarelos e vermelhos sobre o mapa.

Mova o rato sobre o mapa para ver o nome da estação.

Depois clique no ponto para visualizar as observações e previsões meteorológicas.

Para alterar o mapa : clique nos botões verdes com uma cruz preta para aumentar o zoom; no botão verde com uma pitada de zoom; ou nas setas verdes para mapas adjacentes.


METAR-TAF: